METAR AND TAF INFORMATION

METAR FOR MTPP
ADDS - METARS form results

(1450 UTC 21 May 2022)
Data provider http://aviationweather.gov/metar/data/
 
METAR text: MTPP 211400Z 12014KT 7000 SCT027 BKN060 31/22 Q1019 A3009
Conditions at: MTPP (PORT-AU-PRINCE , HT) observed 1400 UTC 21 May 2022
Temperature: 31.0°C (88°F)
Dewpoint: 22.0°C (72°F) [RH = 59%]
Pressure (altimeter): 30.09 inches Hg (1019.0 mb)
Winds: from the ESE (120 degrees) at 16 MPH (14 knots; 7.2 m/s)
Visibility: 4 miles ( 7 km)
Ceiling: 6000 feet AGL
Clouds: scattered clouds at 2700 feet AGL
broken clouds at 6000 feet AGL
Weather: no significant weather observed at this time

METAR text: MTPP 211352Z 12014KT 7000 SCT027 BKN060 31/22 Q1019 A3009 NOSIG
Conditions at: MTPP (PORT-AU-PRINCE , HT) observed 1352 UTC 21 May 2022
Temperature: 31.0°C (88°F)
Dewpoint: 22.0°C (72°F) [RH = 59%]
Pressure (altimeter): 30.09 inches Hg (1019.0 mb)
Winds: from the ESE (120 degrees) at 16 MPH (14 knots; 7.2 m/s)
Visibility: 4 miles ( 7 km)
Ceiling: 6000 feet AGL
Clouds: scattered clouds at 2700 feet AGL
broken clouds at 6000 feet AGL
Weather: no significant weather observed at this time

Forecast for: MTPP (PORT-AU-PRINCE , HT)
Text: TAF MTPP 211100Z 2112/2212 11011KT 8000 SCT020 BKN070
Forecast period: 1200 to 1600 UTC 21 May 2022
Forecast type: FROM: standard forecast or significant change
Winds: from the ESE (110 degrees) at 13 MPH (11 knots; 5.7 m/s)
Visibility: 5 miles (8 km)
Ceiling: 7000 feet AGL
Clouds: scattered clouds at 2000 feet AGL
broken clouds at 7000 feet AGL
Weather: no significant weather forecast for this period
Text: BECMG 2116/2120 10015G25KT
Forecast period: 1600 UTC 21 May 2022 to 0600 UTC 22 May 2022
Forecast type: BECOMING: Conditions expected to become as follows by 2000 UTC 21 May 2022
Winds: from the E (100 degrees) at 17 MPH (15 knots; 7.7 m/s)
gusting to 29 MPH (25 knots; 12.9 m/s)
Visibility: 5 miles (8 km)
Ceiling: 7000 feet AGL
Clouds: scattered clouds at 2000 feet AGL
broken clouds at 7000 feet AGL
Weather: no significant weather forecast for this period
Text: FM220600 3001KT 7000 NSC
Forecast period: 0600 to 1200 UTC 22 May 2022
Forecast type: FROM: standard forecast or significant change
Visibility: 4 miles (7 km)
Ceiling: unknown
Clouds: missing
Weather: no significant weather forecast for this period

 

AIRPORT MAP

 

RUNWAY INFORMATION

Runway 10 Runway length 9974 ft Runway width 141 ft
Runway elevation 79 ft Runway displaced threshold 0 ft Runway heading 87
Runway 28 Runway length 9974 ft Runway width 141 ft
Runway elevation 122 ft Runway displaced threshold 0 ft Runway heading 267

 

AIRPORT FREQUENCIES

Type APP Name APP Frequency 119.8 MHZ
Type TWR Name TWR Frequency 118.3 MHZ

 

AIRPORT NEAR NAVIGATION AIDS

Type NDB Name Port Au Prince Frequency 270 KHZ
Type VOR-DME Name Port Au Prince Frequency 115300 KHZ